createdAt,value
2023-02-14T00:00:15.465Z,101726.09
2023-02-14T00:01:28.960Z,101726.09
2023-02-14T00:02:15.969Z,101724.91
2023-02-14T00:03:06.167Z,101722.41
2023-02-14T00:03:53.313Z,101727.78
2023-02-14T00:04:44.345Z,101727.78
2023-02-14T00:05:31.334Z,101732.72
2023-02-14T00:06:18.516Z,101732.09
2023-02-14T00:07:08.738Z,101734.47
2023-02-14T00:07:55.758Z,101729.94
2023-02-14T00:08:45.203Z,101728.34
2023-02-14T00:09:32.865Z,101719.97
2023-02-14T00:10:20.223Z,101717.50
2023-02-14T00:11:09.230Z,101722.41
2023-02-14T00:11:56.607Z,101716.62
2023-02-14T00:12:43.857Z,101712.84
2023-02-14T00:13:31.135Z,101721.78
2023-02-14T00:14:36.852Z,101719.41
2023-02-14T00:15:24.116Z,101705.78
2023-02-14T00:16:13.297Z,101719.62
2023-02-14T00:17:00.653Z,101711.47
2023-02-14T00:17:48.082Z,101724.00
2023-02-14T00:18:53.682Z,101717.66
2023-02-14T00:19:40.691Z,101713.03
2023-02-14T00:20:28.978Z,101717.75
2023-02-14T00:21:15.937Z,101719.28
2023-02-14T00:22:04.337Z,101717.75
2023-02-14T00:22:51.396Z,101716.41
2023-02-14T00:23:38.356Z,101713.38
2023-02-14T00:24:26.766Z,101714.97
2023-02-14T00:25:13.890Z,101712.41
2023-02-14T00:26:00.813Z,101711.25
2023-02-14T00:26:48.302Z,101716.50
2023-02-14T00:27:35.336Z,101714.91
2023-02-14T00:28:22.357Z,101717.66
2023-02-14T00:29:12.501Z,101721.00
2023-02-14T00:30:02.379Z,101722.69
2023-02-14T00:30:49.722Z,101713.16
2023-02-14T00:31:39.111Z,101718.72
2023-02-14T00:32:26.515Z,101722.69
2023-02-14T00:33:13.476Z,101717.75
2023-02-14T00:34:00.817Z,101721.53
2023-02-14T00:34:48.116Z,101721.94
2023-02-14T00:35:38.357Z,101725.16
2023-02-14T00:36:25.446Z,101718.41
2023-02-14T00:37:12.673Z,101715.97
2023-02-14T00:37:59.647Z,101717.31
2023-02-14T00:38:46.601Z,101718.50
2023-02-14T00:39:33.614Z,101721.44
2023-02-14T00:40:20.692Z,101717.34
2023-02-14T00:41:07.839Z,101715.06
2023-02-14T00:41:55.213Z,101724.53
2023-02-14T00:42:42.268Z,101711.00
2023-02-14T00:43:29.664Z,101720.78
2023-02-14T00:44:17.206Z,101716.94
2023-02-14T00:45:04.437Z,101723.16
2023-02-14T00:45:51.811Z,101715.00
2023-02-14T00:46:38.963Z,101722.63
2023-02-14T00:47:26.035Z,101724.44
2023-02-14T00:48:13.406Z,101714.25
2023-02-14T00:49:00.717Z,101719.53
2023-02-14T00:49:47.722Z,101721.00
2023-02-14T00:50:34.678Z,101724.87
2023-02-14T00:51:22.356Z,101720.12
2023-02-14T00:52:09.360Z,101716.16
2023-02-14T00:52:56.654Z,101724.63
2023-02-14T00:53:43.686Z,101719.16
2023-02-14T00:54:30.645Z,101715.81
2023-02-14T00:55:17.881Z,101716.56
2023-02-14T00:56:06.596Z,101715.97
2023-02-14T00:56:53.631Z,101709.94
2023-02-14T00:57:40.593Z,101712.56
2023-02-14T00:58:28.250Z,101708.91
2023-02-14T00:59:15.655Z,101712.97
2023-02-14T01:00:02.986Z,101704.69
2023-02-14T01:00:50.023Z,101713.47
2023-02-14T01:01:37.199Z,101709.94
2023-02-14T01:02:24.710Z,101704.19
2023-02-14T01:03:11.726Z,101701.25
2023-02-14T01:03:59.205Z,101700.41
2023-02-14T01:04:46.274Z,101699.16
2023-02-14T01:05:33.188Z,101705.78
2023-02-14T01:06:20.508Z,101704.69
2023-02-14T01:07:07.557Z,101696.88
2023-02-14T01:07:54.445Z,101702.09
2023-02-14T01:08:41.491Z,101701.16
2023-02-14T01:09:29.033Z,101693.44
2023-02-14T01:10:16.197Z,101697.41
2023-02-14T01:11:19.812Z,101703.22
2023-02-14T01:12:07.009Z,101698.41
2023-02-14T01:12:54.037Z,101698.06
2023-02-14T01:13:44.963Z,101690.22
2023-02-14T01:14:32.123Z,101690.75
2023-02-14T01:15:19.547Z,101700.31
2023-02-14T01:16:09.218Z,101697.78
2023-02-14T01:16:59.567Z,101695.44
2023-02-14T01:17:46.515Z,101694.41
2023-02-14T01:18:34.111Z,101692.91
2023-02-14T01:19:22.378Z,101695.72
2023-02-14T01:20:10.196Z,101691.63
2023-02-14T01:20:57.485Z,101691.28
2023-02-14T01:21:44.802Z,101695.59
2023-02-14T01:22:37.166Z,101689.28
2023-02-14T01:23:24.407Z,101690.66
2023-02-14T01:24:14.697Z,101686.91
2023-02-14T01:25:01.648Z,101685.19
2023-02-14T01:25:48.685Z,101685.19
2023-02-14T01:26:36.206Z,101684.44
2023-02-14T01:27:23.165Z,101681.16
2023-02-14T01:28:10.102Z,101684.87
2023-02-14T01:28:57.633Z,101692.19
2023-02-14T01:29:44.731Z,101690.16
2023-02-14T01:30:31.824Z,101690.38
2023-02-14T01:31:21.650Z,101692.59
2023-02-14T01:32:08.808Z,101681.88
2023-02-14T01:32:56.142Z,101692.38
2023-02-14T01:33:44.842Z,101683.94
2023-02-14T01:34:31.825Z,101688.53
2023-02-14T01:35:19.075Z,101690.47
2023-02-14T01:36:06.977Z,101684.87
2023-02-14T01:36:53.916Z,101676.63
2023-02-14T01:37:41.207Z,101683.19
2023-02-14T01:38:28.275Z,101679.94
2023-02-14T01:39:16.316Z,101684.47
2023-02-14T01:40:04.776Z,101684.03
2023-02-14T01:40:53.918Z,101681.69
2023-02-14T01:41:42.384Z,101677.16
2023-02-14T01:42:32.240Z,101678.75
2023-02-14T01:43:19.284Z,101679.75
2023-02-14T01:44:15.579Z,101678.91
2023-02-14T01:45:07.251Z,101682.09
2023-02-14T01:45:54.237Z,101685.13
2023-02-14T01:46:48.448Z,101684.13
2023-02-14T01:47:38.496Z,101682.34
2023-02-14T01:48:25.772Z,101680.69
2023-02-14T01:49:18.769Z,101678.03
2023-02-14T01:50:13.176Z,101678.75
2023-02-14T01:51:02.867Z,101673.00
2023-02-14T01:52:04.138Z,101673.63
2023-02-14T01:52:54.311Z,101675.97
2023-02-14T01:53:41.339Z,101676.22
2023-02-14T01:54:29.255Z,101674.19
2023-02-14T01:55:29.399Z,101678.47
2023-02-14T01:56:21.272Z,101675.06
2023-02-14T01:57:10.625Z,101671.81
2023-02-14T01:58:02.922Z,101666.53
2023-02-14T01:58:53.752Z,101667.97
2023-02-14T01:59:46.222Z,101677.19
2023-02-14T02:00:52.276Z,101679.97
2023-02-14T02:01:39.875Z,101683.50
2023-02-14T02:02:26.966Z,101676.00
2023-02-14T02:03:14.703Z,101675.81
2023-02-14T02:04:10.886Z,101674.06
2023-02-14T02:04:57.882Z,101674.50
2023-02-14T02:05:51.114Z,101665.59
2023-02-14T02:06:44.097Z,101672.38
2023-02-14T02:07:31.132Z,101671.06
2023-02-14T02:08:18.273Z,101666.78
2023-02-14T02:09:20.857Z,101672.47
2023-02-14T02:10:08.450Z,101666.03
2023-02-14T02:10:55.402Z,101667.44
2023-02-14T02:11:42.858Z,101668.63
2023-02-14T02:12:31.149Z,101665.50
2023-02-14T02:13:19.796Z,101660.47
2023-02-14T02:14:06.853Z,101661.13
2023-02-14T02:14:55.983Z,101663.69
2023-02-14T02:15:54.580Z,101659.00
2023-02-14T02:17:06.304Z,101656.06
2023-02-14T02:18:12.202Z,101655.22
2023-02-14T02:19:14.996Z,101657.47
2023-02-14T02:20:20.599Z,101662.94
2023-02-14T02:21:16.704Z,101662.09
2023-02-14T02:22:29.855Z,101661.84
2023-02-14T02:23:35.171Z,101661.19
2023-02-14T02:24:25.100Z,101657.47
2023-02-14T02:25:35.328Z,101657.34
2023-02-14T02:26:34.062Z,101660.78
2023-02-14T02:27:43.054Z,101653.63
2023-02-14T02:29:14.485Z,101660.34
2023-02-14T02:30:07.025Z,101658.22
2023-02-14T02:31:31.597Z,101655.97
2023-02-14T02:32:26.173Z,101663.87
2023-02-14T02:33:40.403Z,101657.69
2023-02-14T02:34:51.638Z,101656.81
2023-02-14T02:36:08.993Z,101656.31
2023-02-14T02:37:11.564Z,101656.81
2023-02-14T02:38:01.490Z,101654.25
2023-02-14T02:38:55.134Z,101660.78
2023-02-14T02:39:52.689Z,101657.69
2023-02-14T02:41:07.636Z,101653.19
2023-02-14T02:42:16.124Z,101652.97
2023-02-14T02:43:37.371Z,101653.06
2023-02-14T02:44:39.537Z,101650.41
2023-02-14T02:45:58.547Z,101657.25
2023-02-14T02:47:22.836Z,101663.87
2023-02-14T02:48:18.215Z,101656.38
2023-02-14T02:49:36.527Z,101657.25
2023-02-14T02:50:49.510Z,101656.94
2023-02-14T02:52:10.355Z,101658.09
2023-02-14T02:53:25.002Z,101657.50
2023-02-14T02:54:27.137Z,101649.75
2023-02-14T02:55:19.606Z,101654.69
2023-02-14T02:56:38.969Z,101651.16
2023-02-14T02:57:36.229Z,101656.75
2023-02-14T02:58:26.598Z,101650.63
2023-02-14T02:59:23.703Z,101654.06
2023-02-14T03:00:12.994Z,101647.94
2023-02-14T03:01:01.679Z,101651.81
2023-02-14T03:01:55.250Z,101652.00
2023-02-14T03:03:04.577Z,101650.22
2023-02-14T03:04:15.170Z,101649.22
2023-02-14T03:05:04.935Z,101654.59
2023-02-14T03:05:52.050Z,101649.75
2023-02-14T03:06:39.078Z,101653.41
2023-02-14T03:07:35.153Z,101659.00
2023-02-14T03:08:22.089Z,101660.03
2023-02-14T03:09:13.453Z,101654.16
2023-02-14T03:10:02.209Z,101654.16
2023-02-14T03:10:49.234Z,101652.56
2023-02-14T03:11:37.694Z,101656.19
2023-02-14T03:12:33.667Z,101653.94
2023-02-14T03:13:32.206Z,101655.66
2023-02-14T03:14:27.180Z,101654.25
2023-02-14T03:15:20.040Z,101651.56
2023-02-14T03:16:27.343Z,101653.72
2023-02-14T03:17:46.593Z,101657.91
2023-02-14T03:19:17.090Z,101660.37
2023-02-14T03:20:18.252Z,101658.13
2023-02-14T03:21:30.479Z,101653.09
2023-02-14T03:23:06.339Z,101655.66
2023-02-14T03:23:56.209Z,101658.44
2023-02-14T03:25:02.021Z,101658.66
2023-02-14T03:25:58.985Z,101663.69
2023-02-14T03:26:53.660Z,101655.75
2023-02-14T03:27:50.443Z,101654.81
2023-02-14T03:29:17.872Z,101657.25
2023-02-14T03:30:16.727Z,101656.63
2023-02-14T03:31:11.629Z,101663.91
2023-02-14T03:32:32.325Z,101655.13
2023-02-14T03:33:27.849Z,101653.72
2023-02-14T03:34:28.471Z,101658.13
2023-02-14T03:36:02.361Z,101661.97
2023-02-14T03:36:54.695Z,101664.78
2023-02-14T03:38:17.161Z,101657.37
2023-02-14T03:39:17.768Z,101660.47
2023-02-14T03:40:13.315Z,101663.06
2023-02-14T03:41:06.040Z,101661.13
2023-02-14T03:42:07.050Z,101661.13
2023-02-14T03:42:58.041Z,101657.91
2023-02-14T03:43:51.333Z,101657.78
2023-02-14T03:44:38.616Z,101662.94
2023-02-14T03:45:43.582Z,101660.37
2023-02-14T03:46:34.940Z,101656.09
2023-02-14T03:47:24.795Z,101662.19
2023-02-14T03:48:14.161Z,101656.63
2023-02-14T03:49:05.357Z,101660.59
2023-02-14T03:50:10.835Z,101662.09
2023-02-14T03:50:58.548Z,101666.72
2023-02-14T03:51:49.317Z,101653.84
2023-02-14T03:52:37.513Z,101654.50
2023-02-14T03:53:27.842Z,101652.12
2023-02-14T03:54:16.501Z,101648.81
2023-02-14T03:55:06.059Z,101653.84
2023-02-14T03:56:04.203Z,101654.41
2023-02-14T03:56:57.962Z,101652.12
2023-02-14T03:58:12.637Z,101662.09
2023-02-14T03:59:06.338Z,101659.63
2023-02-14T03:59:54.053Z,101654.16
2023-02-14T04:00:42.528Z,101657.28
2023-02-14T04:02:02.356Z,101657.91
2023-02-14T04:02:54.093Z,101648.47
2023-02-14T04:03:42.807Z,101649.66
2023-02-14T04:04:36.104Z,101641.41
2023-02-14T04:05:27.735Z,101644.41
2023-02-14T04:06:18.288Z,101643.78
2023-02-14T04:07:13.263Z,101653.00
2023-02-14T04:08:00.238Z,101648.72
2023-02-14T04:08:47.663Z,101649.56
2023-02-14T04:09:34.581Z,101647.19
2023-02-14T04:10:22.089Z,101646.97
2023-02-14T04:11:09.236Z,101647.19
2023-02-14T04:11:56.543Z,101647.81
2023-02-14T04:12:43.635Z,101647.72
2023-02-14T04:13:30.802Z,101650.22
2023-02-14T04:14:18.004Z,101638.94
2023-02-14T04:15:05.637Z,101644.28
2023-02-14T04:15:52.651Z,101645.38
2023-02-14T04:16:58.316Z,101643.22
2023-02-14T04:18:03.927Z,101641.50
2023-02-14T04:19:09.648Z,101642.03
2023-02-14T04:19:56.592Z,101641.28
2023-02-14T04:20:43.545Z,101643.97
2023-02-14T04:21:30.499Z,101641.19
2023-02-14T04:22:17.595Z,101645.69
2023-02-14T04:23:04.672Z,101641.00
2023-02-14T04:23:51.651Z,101649.22
2023-02-14T04:24:38.667Z,101640.00
2023-02-14T04:25:25.974Z,101641.09
2023-02-14T04:26:12.955Z,101642.28
2023-02-14T04:27:11.784Z,101639.78
2023-02-14T04:27:58.758Z,101636.81
2023-02-14T04:28:45.696Z,101633.25
2023-02-14T04:29:32.690Z,101634.44
2023-02-14T04:30:21.168Z,101639.16
2023-02-14T04:31:08.299Z,101633.81
2023-02-14T04:31:55.473Z,101629.31
2023-02-14T04:32:42.484Z,101631.22
2023-02-14T04:33:32.110Z,101633.25
2023-02-14T04:34:19.078Z,101629.19
2023-02-14T04:35:06.487Z,101629.72
2023-02-14T04:35:53.497Z,101628.03
2023-02-14T04:36:40.468Z,101632.22
2023-02-14T04:37:27.671Z,101629.63
2023-02-14T04:38:14.767Z,101634.56
2023-02-14T04:39:01.720Z,101631.00
2023-02-14T04:39:48.884Z,101631.75
2023-02-14T04:40:35.869Z,101626.53
2023-02-14T04:41:22.849Z,101630.28
2023-02-14T04:42:10.002Z,101631.75
2023-02-14T04:42:57.101Z,101625.88
2023-02-14T04:43:44.042Z,101626.72
2023-02-14T04:44:31.057Z,101632.31
2023-02-14T04:45:18.167Z,101632.72
2023-02-14T04:46:05.231Z,101627.03
2023-02-14T04:46:52.458Z,101622.25
2023-02-14T04:47:39.718Z,101623.84
2023-02-14T04:48:26.773Z,101624.69
2023-02-14T04:49:13.877Z,101628.97
2023-02-14T04:50:00.845Z,101618.69
2023-02-14T04:50:52.854Z,101616.84
2023-02-14T04:51:39.871Z,101620.19
2023-02-14T04:52:27.169Z,101620.59
2023-02-14T04:53:14.099Z,101618.81
2023-02-14T04:54:01.092Z,101618.69
2023-02-14T04:54:49.039Z,101618.34
2023-02-14T04:55:35.970Z,101627.69
2023-02-14T04:56:22.971Z,101624.38
2023-02-14T04:57:10.122Z,101627.03
2023-02-14T04:57:57.080Z,101629.63
2023-02-14T04:58:44.078Z,101624.28
2023-02-14T04:59:31.077Z,101623.72
2023-02-14T05:00:18.606Z,101622.97
2023-02-14T05:01:05.755Z,101629.53
2023-02-14T05:01:53.769Z,101621.03
2023-02-14T05:02:40.843Z,101618.34
2023-02-14T05:03:27.850Z,101621.03
2023-02-14T05:04:14.881Z,101625.53
2023-02-14T05:05:01.876Z,101619.84
2023-02-14T05:05:48.834Z,101626.19
2023-02-14T05:06:35.804Z,101618.69
2023-02-14T05:07:22.652Z,101617.59
2023-02-14T05:08:09.939Z,101612.72
2023-02-14T05:08:57.003Z,101624.69
2023-02-14T05:09:44.009Z,101623.84
2023-02-14T05:10:31.198Z,101624.69
2023-02-14T05:11:18.172Z,101618.81
2023-02-14T05:12:05.251Z,101624.59
2023-02-14T05:12:52.131Z,101620.00
2023-02-14T05:13:39.121Z,101618.81
2023-02-14T05:14:26.175Z,101628.78
2023-02-14T05:15:13.155Z,101622.53
2023-02-14T05:16:00.273Z,101620.00
2023-02-14T05:16:47.402Z,101624.38
2023-02-14T05:17:34.362Z,101625.22
2023-02-14T05:18:22.005Z,101620.09
2023-02-14T05:19:09.169Z,101620.19
2023-02-14T05:19:56.199Z,101624.59
2023-02-14T05:20:43.230Z,101610.78
2023-02-14T05:21:33.298Z,101617.31
2023-02-14T05:22:20.274Z,101620.19
2023-02-14T05:23:13.830Z,101617.19
2023-02-14T05:24:01.722Z,101609.56
2023-02-14T05:24:48.721Z,101611.06
2023-02-14T05:25:35.741Z,101614.31
2023-02-14T05:26:22.817Z,101621.03
2023-02-14T05:27:11.917Z,101620.94
2023-02-14T05:27:58.892Z,101618.16
2023-02-14T05:28:45.950Z,101621.03
2023-02-14T05:29:33.019Z,101618.25
2023-02-14T05:30:22.662Z,101616.66
2023-02-14T05:31:10.293Z,101621.25
2023-02-14T05:31:57.496Z,101619.75
2023-02-14T05:32:44.487Z,101625.12
2023-02-14T05:33:31.482Z,101615.81
2023-02-14T05:34:18.956Z,101622.97
2023-02-14T05:35:06.397Z,101619.53
2023-02-14T05:35:53.390Z,101620.63
2023-02-14T05:36:40.453Z,101633.06
2023-02-14T05:37:27.405Z,101632.06
2023-02-14T05:38:14.520Z,101621.16
2023-02-14T05:39:01.481Z,101626.72
2023-02-14T05:39:48.395Z,101620.00
2023-02-14T05:40:35.488Z,101621.50
2023-02-14T05:41:22.457Z,101627.06
2023-02-14T05:42:12.718Z,101623.84
2023-02-14T05:42:59.650Z,101629.63
2023-02-14T05:43:46.531Z,101629.81
2023-02-14T05:44:33.490Z,101632.84
2023-02-14T05:45:20.575Z,101638.50
2023-02-14T05:46:09.924Z,101634.75
2023-02-14T05:46:57.067Z,101629.72
2023-02-14T05:47:44.061Z,101632.09
2023-02-14T05:48:31.082Z,101628.66
2023-02-14T05:49:20.725Z,101624.59
2023-02-14T05:50:08.465Z,101630.06
2023-02-14T05:50:55.528Z,101627.81
2023-02-14T05:51:48.886Z,101632.41
2023-02-14T05:52:35.895Z,101630.72
2023-02-14T05:53:23.665Z,101629.63
2023-02-14T05:54:11.154Z,101630.25
2023-02-14T05:54:58.198Z,101623.41
2023-02-14T05:55:45.200Z,101623.28
2023-02-14T05:56:32.220Z,101631.56
2023-02-14T05:57:19.214Z,101633.16
2023-02-14T05:58:06.368Z,101631.97
2023-02-14T05:58:56.743Z,101629.19
2023-02-14T05:59:43.897Z,101638.94
2023-02-14T06:00:31.551Z,101633.91
2023-02-14T06:01:18.610Z,101636.34
2023-02-14T06:02:05.745Z,101630.16
2023-02-14T06:02:52.855Z,101638.19
2023-02-14T06:03:39.886Z,101636.06
2023-02-14T06:04:27.004Z,101642.94
2023-02-14T06:05:15.131Z,101642.38
2023-02-14T06:06:02.166Z,101640.66
2023-02-14T06:06:49.163Z,101639.59
2023-02-14T06:07:36.212Z,101650.84
2023-02-14T06:08:23.556Z,101648.47
2023-02-14T06:09:10.556Z,101642.94
2023-02-14T06:09:57.540Z,101644.72
2023-02-14T06:10:44.562Z,101649.47
2023-02-14T06:11:31.545Z,101645.91
2023-02-14T06:12:18.470Z,101643.78
2023-02-14T06:13:09.162Z,101643.97
2023-02-14T06:13:55.935Z,101638.09
2023-02-14T06:14:43.216Z,101645.69
2023-02-14T06:15:30.248Z,101639.25
2023-02-14T06:16:17.374Z,101635.09
2023-02-14T06:17:04.437Z,101639.03
2023-02-14T06:17:53.400Z,101634.34
2023-02-14T06:18:40.384Z,101638.50
2023-02-14T06:19:27.362Z,101643.34
2023-02-14T06:20:14.421Z,101634.34
2023-02-14T06:21:01.640Z,101635.41
2023-02-14T06:21:48.834Z,101646.22
2023-02-14T06:22:37.102Z,101641.53
2023-02-14T06:23:24.202Z,101643.34
2023-02-14T06:24:11.257Z,101645.81
2023-02-14T06:24:58.239Z,101642.28
2023-02-14T06:25:45.218Z,101646.78
2023-02-14T06:26:33.182Z,101644.41
2023-02-14T06:27:20.195Z,101655.88
2023-02-14T06:28:07.242Z,101650.31
2023-02-14T06:28:55.485Z,101649.12
2023-02-14T06:29:42.458Z,101650.41
2023-02-14T06:30:29.636Z,101641.94
2023-02-14T06:31:17.976Z,101641.94
2023-02-14T06:32:07.334Z,101648.16
2023-02-14T06:32:54.522Z,101647.06
2023-02-14T06:33:41.535Z,101642.59
2023-02-14T06:34:28.557Z,101645.78
2023-02-14T06:35:15.737Z,101646.87
2023-02-14T06:36:02.780Z,101641.94
2023-02-14T06:36:49.724Z,101641.84
2023-02-14T06:37:36.610Z,101639.56
2023-02-14T06:38:23.608Z,101640.00
2023-02-14T06:39:10.754Z,101640.84
2023-02-14T06:39:57.783Z,101643.09
2023-02-14T06:40:44.802Z,101642.47
2023-02-14T06:41:31.798Z,101649.22
2023-02-14T06:42:18.922Z,101642.34
2023-02-14T06:43:05.944Z,101644.38
2023-02-14T06:43:52.889Z,101647.19
2023-02-14T06:44:41.897Z,101653.94
2023-02-14T06:45:28.855Z,101643.66
2023-02-14T06:46:17.068Z,101645.69
2023-02-14T06:47:04.762Z,101649.66
2023-02-14T06:47:52.000Z,101651.16
2023-02-14T06:48:38.972Z,101646.44
2023-02-14T06:49:26.051Z,101649.75
2023-02-14T06:50:13.154Z,101644.50
2023-02-14T06:51:00.600Z,101641.81
2023-02-14T06:51:47.799Z,101646.94
2023-02-14T06:52:34.845Z,101650.81
2023-02-14T06:53:22.092Z,101649.63
2023-02-14T06:54:09.156Z,101651.03
2023-02-14T06:54:58.169Z,101657.13
2023-02-14T06:55:45.453Z,101654.66
2023-02-14T06:56:32.540Z,101653.06
2023-02-14T06:57:19.480Z,101654.66
2023-02-14T06:58:06.442Z,101659.91
2023-02-14T06:58:53.414Z,101666.69
2023-02-14T06:59:40.641Z,101652.97
2023-02-14T07:00:27.755Z,101659.41
2023-02-14T07:01:14.774Z,101654.22
2023-02-14T07:02:02.163Z,101660.44
2023-02-14T07:02:49.192Z,101659.47
2023-02-14T07:03:36.170Z,101663.25
2023-02-14T07:04:23.154Z,101657.13
2023-02-14T07:05:10.124Z,101659.72
2023-02-14T07:05:58.149Z,101658.31
2023-02-14T07:06:46.456Z,101660.13
2023-02-14T07:07:33.363Z,101659.72
2023-02-14T07:08:21.784Z,101664.34
2023-02-14T07:09:08.781Z,101663.44
2023-02-14T07:09:55.738Z,101662.19
2023-02-14T07:10:42.692Z,101660.34
2023-02-14T07:11:29.797Z,101671.06
2023-02-14T07:12:16.697Z,101669.03
2023-02-14T07:13:03.773Z,101661.66
2023-02-14T07:13:50.762Z,101661.09
2023-02-14T07:14:37.699Z,101663.13
2023-02-14T07:15:24.660Z,101663.00
2023-02-14T07:16:12.059Z,101654.03
2023-02-14T07:16:59.057Z,101655.78
2023-02-14T07:17:46.157Z,101657.97
2023-02-14T07:18:33.082Z,101660.78
2023-02-14T07:19:20.152Z,101661.41
2023-02-14T07:20:08.055Z,101660.66
2023-02-14T07:20:55.019Z,101658.75
2023-02-14T07:21:42.049Z,101664.94
2023-02-14T07:22:30.369Z,101665.78
2023-02-14T07:23:17.703Z,101665.38
2023-02-14T07:24:04.687Z,101658.97
2023-02-14T07:24:51.657Z,101660.22
2023-02-14T07:25:38.642Z,101666.34
2023-02-14T07:26:25.696Z,101660.34
2023-02-14T07:27:13.193Z,101663.75
2023-02-14T07:28:00.137Z,101657.97
2023-02-14T07:28:52.550Z,101657.94
2023-02-14T07:29:39.584Z,101663.75
2023-02-14T07:30:26.681Z,101656.13
2023-02-14T07:31:13.845Z,101663.09
2023-02-14T07:32:00.995Z,101650.87
2023-02-14T07:32:48.097Z,101651.72
2023-02-14T07:33:35.060Z,101664.16
2023-02-14T07:34:22.020Z,101665.13
2023-02-14T07:35:09.254Z,101662.00
2023-02-14T07:35:56.924Z,101661.38
2023-02-14T07:36:44.401Z,101666.09
2023-02-14T07:37:34.977Z,101665.78
2023-02-14T07:38:21.933Z,101665.97
2023-02-14T07:39:08.980Z,101669.31
2023-02-14T07:39:55.965Z,101666.28
2023-02-14T07:40:42.947Z,101666.38
2023-02-14T07:41:29.861Z,101670.41
2023-02-14T07:42:17.116Z,101667.47
2023-02-14T07:43:04.076Z,101662.75
2023-02-14T07:43:51.214Z,101663.06
2023-02-14T07:44:39.263Z,101667.72
2023-02-14T07:45:26.254Z,101673.59
2023-02-14T07:46:13.439Z,101661.59
2023-02-14T07:47:00.420Z,101668.72
2023-02-14T07:47:54.471Z,101664.84
2023-02-14T07:48:41.468Z,101665.44
2023-02-14T07:49:30.457Z,101673.16
2023-02-14T07:50:17.683Z,101667.03
2023-02-14T07:51:04.650Z,101670.97
2023-02-14T07:51:51.611Z,101662.62
2023-02-14T07:52:38.558Z,101663.94
2023-02-14T07:53:25.791Z,101670.41
2023-02-14T07:54:16.960Z,101676.59
2023-02-14T07:55:04.073Z,101672.91
2023-02-14T07:55:52.498Z,101671.66
2023-02-14T07:56:39.455Z,101671.63
2023-02-14T07:57:26.409Z,101676.34
2023-02-14T07:58:13.389Z,101677.66
2023-02-14T07:59:00.600Z,101684.66
2023-02-14T07:59:49.650Z,101674.53
2023-02-14T08:00:36.644Z,101681.84
2023-02-14T08:01:23.823Z,101680.00
2023-02-14T08:02:12.843Z,101674.84
2023-02-14T08:02:59.895Z,101675.38
2023-02-14T08:03:49.796Z,101673.53
2023-02-14T08:04:36.834Z,101675.88
2023-02-14T08:05:24.129Z,101675.69
2023-02-14T08:06:11.206Z,101672.75
2023-02-14T08:06:58.194Z,101681.22
2023-02-14T08:07:46.538Z,101677.37
2023-02-14T08:08:33.566Z,101678.13
2023-02-14T08:09:26.979Z,101678.88
2023-02-14T08:10:13.989Z,101679.72
2023-02-14T08:11:01.519Z,101683.44
2023-02-14T08:12:07.251Z,101684.13
2023-02-14T08:13:00.378Z,101686.41
2023-02-14T08:13:47.339Z,101681.16
2023-02-14T08:14:34.357Z,101681.09
2023-02-14T08:15:40.158Z,101683.91
2023-02-14T08:16:29.334Z,101687.63
2023-02-14T08:17:16.488Z,101684.59
2023-02-14T08:18:03.738Z,101685.44
2023-02-14T08:18:50.738Z,101685.22
2023-02-14T08:19:37.731Z,101681.69
2023-02-14T08:20:24.750Z,101685.72
2023-02-14T08:21:11.768Z,101683.50
2023-02-14T08:21:59.489Z,101681.75
2023-02-14T08:22:46.486Z,101686.19
2023-02-14T08:23:33.720Z,101683.03
2023-02-14T08:24:20.727Z,101690.59
2023-02-14T08:25:07.989Z,101684.97
2023-02-14T08:25:55.454Z,101689.75
2023-02-14T08:26:42.523Z,101681.75
2023-02-14T08:27:29.564Z,101682.94
2023-02-14T08:28:17.242Z,101679.06
2023-02-14T08:29:04.213Z,101675.22
2023-02-14T08:29:51.171Z,101677.53
2023-02-14T08:30:39.201Z,101680.47
2023-02-14T08:31:35.695Z,101677.66
2023-02-14T08:32:23.643Z,101687.09
2023-02-14T08:33:11.098Z,101689.41
2023-02-14T08:33:58.164Z,101692.94
2023-02-14T08:34:45.312Z,101684.72
2023-02-14T08:35:32.319Z,101700.56
2023-02-14T08:36:19.282Z,101699.38
2023-02-14T08:37:06.240Z,101696.59
2023-02-14T08:37:53.315Z,101686.50
2023-02-14T08:38:41.804Z,101693.25
2023-02-14T08:39:28.811Z,101693.72
2023-02-14T08:40:15.916Z,101685.66
2023-02-14T08:41:06.659Z,101685.53
2023-02-14T08:41:55.117Z,101684.09
2023-02-14T08:42:42.097Z,101686.06
2023-02-14T08:43:29.174Z,101679.16
2023-02-14T08:44:16.717Z,101688.31
2023-02-14T08:45:04.092Z,101687.16
2023-02-14T08:45:54.247Z,101694.25
2023-02-14T08:46:41.251Z,101684.75
2023-02-14T08:47:28.244Z,101686.00
2023-02-14T08:48:18.264Z,101689.56
2023-02-14T08:49:05.656Z,101682.88
2023-02-14T08:49:52.599Z,101688.13
2023-02-14T08:50:40.373Z,101680.56
2023-02-14T08:51:27.445Z,101687.69
2023-02-14T08:52:14.444Z,101686.22
2023-02-14T08:53:01.378Z,101691.56
2023-02-14T08:53:50.932Z,101689.50
2023-02-14T08:54:39.955Z,101690.00
2023-02-14T08:55:27.887Z,101694.87
2023-02-14T08:56:15.338Z,101698.53
2023-02-14T08:57:04.777Z,101698.16
2023-02-14T08:57:51.695Z,101700.25
2023-02-14T08:58:39.124Z,101697.06
2023-02-14T08:59:26.157Z,101699.28
2023-02-14T09:00:15.685Z,101694.06
2023-02-14T09:01:09.215Z,101701.00
2023-02-14T09:01:56.289Z,101697.38
2023-02-14T09:02:43.312Z,101696.53
2023-02-14T09:03:30.413Z,101692.66
2023-02-14T09:04:17.628Z,101697.16
2023-02-14T09:05:04.821Z,101697.94
2023-02-14T09:05:51.839Z,101701.69
2023-02-14T09:06:39.856Z,101695.13
2023-02-14T09:07:27.076Z,101696.06
2023-02-14T09:08:14.184Z,101702.94
2023-02-14T09:09:02.552Z,101700.47
2023-02-14T09:09:49.727Z,101696.94
2023-02-14T09:10:37.001Z,101692.31
2023-02-14T09:11:25.233Z,101697.94
2023-02-14T09:12:12.215Z,101699.38
2023-02-14T09:12:59.240Z,101705.41
2023-02-14T09:13:46.857Z,101701.97
2023-02-14T09:14:38.437Z,101702.72
2023-02-14T09:15:25.579Z,101702.34
2023-02-14T09:16:13.656Z,101704.34
2023-02-14T09:17:03.866Z,101707.87
2023-02-14T09:17:52.201Z,101703.25
2023-02-14T09:18:40.182Z,101707.87
2023-02-14T09:19:27.164Z,101710.16
2023-02-14T09:20:15.489Z,101694.28
2023-02-14T09:21:03.316Z,101703.97
2023-02-14T09:21:50.333Z,101694.69
2023-02-14T09:22:39.555Z,101700.47
2023-02-14T09:23:26.555Z,101704.25
2023-02-14T09:24:13.556Z,101703.28
2023-02-14T09:25:01.390Z,101696.81
2023-02-14T09:25:48.434Z,101696.06
2023-02-14T09:26:37.169Z,101705.75
2023-02-14T09:27:24.201Z,101702.19
2023-02-14T09:28:13.302Z,101705.84
2023-02-14T09:29:00.321Z,101712.91
2023-02-14T09:29:47.313Z,101708.66
2023-02-14T09:30:34.311Z,101711.59
2023-02-14T09:31:23.864Z,101708.88
2023-02-14T09:32:11.256Z,101713.66
2023-02-14T09:32:58.376Z,101714.06